createdAt,value
2023-04-19T00:01:43.193Z,24.10
2023-04-19T00:04:10.279Z,23.42
2023-04-19T00:06:38.010Z,23.20
2023-04-19T00:09:05.405Z,22.77
2023-04-19T00:11:32.364Z,24.02
2023-04-19T00:13:59.300Z,26.65
2023-04-19T00:16:26.628Z,27.98
2023-04-19T00:18:53.575Z,26.40
2023-04-19T00:21:20.592Z,26.73
2023-04-19T00:23:48.002Z,26.70
2023-04-19T00:26:16.005Z,26.45
2023-04-19T00:28:48.303Z,29.23
2023-04-19T00:31:16.292Z,22.70
2023-04-19T00:33:43.264Z,28.45
2023-04-19T00:36:10.997Z,26.70
2023-04-19T00:38:39.148Z,28.70
2023-04-19T00:41:06.184Z,24.05
2023-04-19T00:43:33.225Z,26.35
2023-04-19T00:46:01.143Z,27.30
2023-04-19T00:48:28.543Z,26.75
2023-04-19T00:50:55.868Z,26.50
2023-04-19T00:53:22.797Z,29.40
2023-04-19T00:55:52.576Z,27.02
2023-04-19T01:00:46.709Z,21.55
2023-04-19T01:03:13.825Z,26.42
2023-04-19T01:05:40.943Z,26.75
2023-04-19T01:08:08.505Z,24.55
2023-04-19T01:10:35.568Z,24.58
2023-04-19T01:13:02.615Z,27.40
2023-04-19T01:15:31.231Z,23.85
2023-04-19T01:17:58.270Z,24.45
2023-04-19T01:20:25.393Z,24.23
2023-04-19T01:22:54.189Z,25.55
2023-04-19T01:25:21.344Z,22.83
2023-04-19T01:27:48.306Z,22.90
2023-04-19T01:30:16.095Z,22.88
2023-04-19T01:32:43.084Z,21.63
2023-04-19T01:35:11.513Z,24.38
2023-04-19T01:37:38.527Z,22.00
2023-04-19T01:40:06.266Z,22.35
2023-04-19T01:42:33.242Z,24.38
2023-04-19T01:45:01.200Z,25.52
2023-04-19T01:47:28.284Z,22.17
2023-04-19T01:49:55.429Z,24.13
2023-04-19T01:52:22.491Z,21.55
2023-04-19T01:54:49.467Z,23.35
2023-04-19T01:57:16.718Z,22.60
2023-04-19T01:59:43.826Z,23.27
2023-04-19T02:02:12.064Z,23.48
2023-04-19T02:04:39.038Z,25.00
2023-04-19T02:07:06.622Z,20.08
2023-04-19T02:09:37.841Z,24.52
2023-04-19T02:12:05.732Z,20.95
2023-04-19T02:14:32.824Z,22.05
2023-04-19T02:16:59.778Z,24.80
2023-04-19T02:19:27.106Z,21.83
2023-04-19T02:21:57.740Z,23.80
2023-04-19T02:24:25.437Z,21.05
2023-04-19T02:26:52.529Z,22.95
2023-04-19T02:29:19.589Z,24.13
2023-04-19T02:31:46.712Z,23.23
2023-04-19T02:34:14.109Z,26.67
2023-04-19T02:36:41.261Z,24.92
2023-04-19T02:39:08.566Z,22.75
2023-04-19T02:41:38.207Z,25.02
2023-04-19T02:44:05.635Z,21.02
2023-04-19T02:46:34.617Z,24.13
2023-04-19T02:49:01.914Z,23.90
2023-04-19T02:51:29.603Z,22.00
2023-04-19T02:53:56.705Z,23.17
2023-04-19T02:56:24.067Z,23.33
2023-04-19T02:58:53.207Z,23.45
2023-04-19T03:01:20.443Z,25.10
2023-04-19T03:03:47.446Z,21.00
2023-04-19T03:06:15.114Z,24.67
2023-04-19T03:08:42.032Z,23.25
2023-04-19T03:11:09.024Z,22.42
2023-04-19T03:13:35.965Z,24.48
2023-04-19T03:16:04.055Z,25.85
2023-04-19T03:18:32.368Z,22.30
2023-04-19T03:21:01.323Z,24.08
2023-04-19T03:23:33.056Z,23.27
2023-04-19T03:26:02.066Z,24.75
2023-04-19T03:28:44.915Z,20.77
2023-04-19T03:31:18.849Z,23.67
2023-04-19T03:33:49.201Z,25.77
2023-04-19T03:36:16.631Z,23.92
2023-04-19T03:38:45.850Z,22.95
2023-04-19T03:41:25.967Z,25.63
2023-04-19T03:44:09.570Z,25.67
2023-04-19T03:46:37.705Z,25.38
2023-04-19T03:49:04.956Z,22.25
2023-04-19T03:51:32.119Z,26.25
2023-04-19T03:53:59.091Z,24.75
2023-04-19T03:56:27.144Z,25.75
2023-04-19T03:58:54.615Z,27.92
2023-04-19T04:01:24.346Z,27.17
2023-04-19T04:03:52.922Z,26.67
2023-04-19T04:06:20.252Z,25.40
2023-04-19T04:08:47.708Z,28.05
2023-04-19T04:11:14.716Z,30.13
2023-04-19T04:13:43.350Z,26.70
2023-04-19T04:16:18.099Z,26.05
2023-04-19T04:18:45.083Z,28.35
2023-04-19T04:23:44.102Z,22.08
2023-04-19T04:26:18.148Z,25.25
2023-04-19T04:29:11.531Z,25.95
2023-04-19T04:31:40.468Z,26.27
2023-04-19T04:34:09.249Z,25.80
2023-04-19T04:36:41.795Z,25.52
2023-04-19T04:39:11.968Z,24.73
2023-04-19T04:44:12.847Z,24.90
2023-04-19T04:46:50.768Z,24.88
2023-04-19T04:49:23.960Z,25.75
2023-04-19T04:51:51.123Z,26.67
2023-04-19T04:54:18.586Z,27.77
2023-04-19T04:56:46.976Z,27.25
2023-04-19T04:59:14.169Z,23.95
2023-04-19T05:01:47.825Z,27.38
2023-04-19T05:04:16.173Z,26.00
2023-04-19T05:06:44.651Z,27.52
2023-04-19T05:11:40.288Z,24.50
2023-04-19T05:14:07.275Z,30.17
2023-04-19T05:16:34.886Z,27.38
2023-04-19T05:19:02.990Z,26.15
2023-04-19T05:21:34.994Z,29.17
2023-04-19T05:24:10.357Z,30.13
2023-04-19T05:26:37.812Z,27.45
2023-04-19T05:29:06.474Z,28.65
2023-04-19T05:31:47.073Z,29.33
2023-04-19T05:34:22.347Z,28.80
2023-04-19T05:36:50.086Z,27.00
2023-04-19T05:39:17.385Z,26.33
2023-04-19T05:41:44.440Z,26.63
2023-04-19T05:44:11.318Z,30.30
2023-04-19T05:46:38.332Z,26.00
2023-04-19T05:49:07.214Z,22.55
2023-04-19T05:51:54.422Z,32.58
2023-04-19T05:54:44.565Z,28.48
2023-04-19T05:57:11.785Z,29.83
2023-04-19T05:59:38.804Z,28.25
2023-04-19T06:02:06.326Z,30.58
2023-04-19T06:04:33.636Z,26.95
2023-04-19T06:07:00.890Z,26.58
2023-04-19T06:09:27.865Z,27.17
2023-04-19T06:11:56.926Z,28.67
2023-04-19T06:14:27.465Z,27.70
2023-04-19T06:16:54.482Z,27.35
2023-04-19T06:19:21.447Z,27.50
2023-04-19T06:21:48.445Z,23.98
2023-04-19T06:24:15.601Z,23.95
2023-04-19T06:26:43.351Z,23.30
2023-04-19T06:29:10.445Z,21.73
2023-04-19T06:31:37.614Z,23.75
2023-04-19T06:34:04.633Z,22.15
2023-04-19T06:36:32.979Z,24.25
2023-04-19T06:39:00.030Z,23.80
2023-04-19T06:41:27.054Z,24.35
2023-04-19T06:43:54.030Z,22.83
2023-04-19T06:46:21.219Z,24.60
2023-04-19T06:48:48.323Z,29.70
2023-04-19T06:51:15.657Z,30.60
2023-04-19T06:53:44.713Z,26.85
2023-04-19T06:56:12.984Z,27.27
2023-04-19T06:58:39.916Z,27.50
2023-04-19T07:01:07.606Z,23.92
2023-04-19T07:03:34.793Z,23.25
2023-04-19T07:06:01.968Z,25.85
2023-04-19T07:08:42.496Z,25.75
2023-04-19T07:11:15.763Z,27.27
2023-04-19T07:13:42.700Z,31.02
2023-04-19T07:16:09.915Z,30.48
2023-04-19T07:18:36.943Z,29.75
2023-04-19T07:21:04.042Z,30.52
2023-04-19T07:23:31.006Z,29.77
2023-04-19T07:25:58.023Z,29.67
2023-04-19T07:28:24.997Z,29.52
2023-04-19T07:30:52.026Z,29.45
2023-04-19T07:33:19.051Z,26.38
2023-04-19T07:35:46.205Z,27.85
2023-04-19T07:38:13.361Z,27.20
2023-04-19T07:40:40.431Z,28.50
2023-04-19T07:43:07.400Z,26.75
2023-04-19T07:45:34.378Z,25.67
2023-04-19T07:48:01.530Z,30.20
2023-04-19T07:50:28.807Z,28.60
2023-04-19T07:52:56.784Z,31.45
2023-04-19T07:55:23.762Z,32.13
2023-04-19T07:57:50.814Z,28.60
2023-04-19T08:00:18.522Z,31.38
2023-04-19T08:02:46.765Z,29.90
2023-04-19T08:05:17.456Z,29.15
2023-04-19T08:07:45.593Z,32.40
2023-04-19T08:10:13.498Z,27.50
2023-04-19T08:12:47.691Z,31.15
2023-04-19T08:16:03.427Z,27.67
2023-04-19T08:18:11.316Z,31.48
2023-04-19T08:20:38.344Z,30.58
2023-04-19T08:23:20.413Z,35.80
2023-04-19T08:25:49.811Z,34.15
2023-04-19T08:28:18.296Z,30.50
2023-04-19T08:30:45.386Z,32.28
2023-04-19T08:33:12.585Z,29.42
2023-04-19T08:35:41.593Z,34.85
2023-04-19T08:38:09.200Z,30.87
2023-04-19T08:40:46.162Z,34.97
2023-04-19T08:43:13.246Z,29.85
2023-04-19T08:45:41.251Z,30.50
2023-04-19T08:48:11.823Z,32.15
2023-04-19T08:56:03.562Z,27.02
2023-04-19T09:01:07.011Z,28.58
2023-04-19T09:03:41.169Z,26.13
2023-04-19T09:06:12.457Z,29.73
2023-04-19T09:08:41.120Z,29.35
2023-04-19T09:11:08.586Z,24.50
2023-04-19T09:13:40.741Z,26.15
2023-04-19T09:16:22.833Z,25.92
2023-04-19T09:19:11.540Z,26.63
2023-04-19T09:21:46.783Z,25.85
2023-04-19T09:24:13.954Z,25.17
2023-04-19T09:26:54.608Z,23.45
2023-04-19T09:29:21.681Z,25.83
2023-04-19T09:31:58.940Z,24.23
2023-04-19T09:34:28.282Z,30.58
2023-04-19T09:37:04.713Z,26.80
2023-04-19T09:39:38.959Z,28.67
2023-04-19T09:42:07.227Z,27.48
2023-04-19T09:45:02.184Z,27.17
2023-04-19T09:47:24.184Z,25.00
2023-04-19T09:50:22.838Z,29.77
2023-04-19T09:52:53.075Z,29.23
2023-04-19T09:57:52.819Z,29.83
2023-04-19T10:00:21.814Z,30.55
2023-04-19T10:02:56.130Z,32.95
2023-04-19T10:05:24.586Z,32.88
2023-04-19T10:07:56.503Z,31.17
2023-04-19T10:10:40.620Z,31.48
2023-04-19T10:15:51.122Z,32.00
2023-04-19T10:18:20.187Z,31.42
2023-04-19T10:20:58.700Z,35.80
2023-04-19T10:23:26.125Z,33.22
2023-04-19T10:25:57.982Z,36.33
2023-04-19T10:28:28.183Z,38.83
2023-04-19T10:31:03.321Z,38.25
2023-04-19T10:33:35.634Z,36.10
2023-04-19T10:36:03.228Z,38.70
2023-04-19T10:38:38.605Z,41.10
2023-04-19T10:41:13.611Z,38.30
2023-04-19T10:44:08.758Z,44.35
2023-04-19T10:46:36.403Z,45.70
2023-04-19T10:49:05.528Z,41.30
2023-04-19T10:51:42.442Z,44.50
2023-04-19T10:54:30.115Z,38.60
2023-04-19T10:57:05.507Z,40.83
2023-04-19T10:59:44.394Z,41.67
2023-04-19T11:02:24.822Z,41.92
2023-04-19T11:04:51.949Z,49.67
2023-04-19T11:07:21.200Z,44.70
2023-04-19T11:09:49.885Z,51.25
2023-04-19T11:12:19.950Z,41.83
2023-04-19T11:14:49.276Z,42.85
2023-04-19T11:17:27.810Z,35.83
2023-04-19T11:20:12.204Z,36.97
2023-04-19T11:22:41.451Z,42.90
2023-04-19T11:25:13.378Z,33.88
2023-04-19T11:27:41.621Z,29.77
2023-04-19T11:30:11.613Z,31.67
2023-04-19T11:32:45.922Z,29.20
2023-04-19T11:35:12.974Z,26.42
2023-04-19T11:37:39.916Z,29.77
2023-04-19T11:40:08.943Z,29.27
2023-04-19T11:42:36.642Z,23.25
2023-04-19T11:45:03.865Z,24.92
2023-04-19T11:47:32.334Z,27.35
2023-04-19T11:50:32.764Z,25.58
2023-04-19T11:53:09.271Z,25.73
2023-04-19T11:55:36.404Z,22.48
2023-04-19T11:58:03.478Z,22.98
2023-04-19T12:00:30.757Z,22.05
2023-04-19T12:02:59.698Z,21.83
2023-04-19T12:05:26.930Z,22.10
2023-04-19T12:08:11.101Z,20.73
2023-04-19T12:10:37.949Z,25.38
2023-04-19T12:13:25.379Z,21.90
2023-04-19T12:15:52.639Z,22.38
2023-04-19T12:18:19.651Z,20.98
2023-04-19T12:20:48.553Z,20.10
2023-04-19T12:23:16.619Z,21.73
2023-04-19T12:25:46.459Z,21.25
2023-04-19T12:30:41.667Z,24.88
2023-04-19T12:33:09.707Z,19.98
2023-04-19T12:35:37.578Z,17.85
2023-04-19T12:38:04.601Z,20.88
2023-04-19T12:40:31.919Z,21.92
2023-04-19T12:42:59.048Z,23.08
2023-04-19T12:45:26.340Z,18.38
2023-04-19T12:47:53.460Z,18.90
2023-04-19T12:50:20.946Z,20.42
2023-04-19T12:57:13.911Z,20.35
2023-04-19T12:59:41.036Z,18.25
2023-04-19T13:02:08.585Z,17.20
2023-04-19T13:04:36.830Z,17.48
2023-04-19T13:07:09.244Z,17.15
2023-04-19T13:09:36.689Z,15.25
2023-04-19T13:12:06.141Z,16.75
2023-04-19T13:14:33.429Z,13.07
2023-04-19T13:17:00.509Z,12.23
2023-04-19T13:19:27.606Z,13.45
2023-04-19T13:21:54.504Z,10.45
2023-04-19T13:24:21.469Z,10.07
2023-04-19T13:26:48.334Z,11.65
2023-04-19T13:29:15.562Z,13.32
2023-04-19T13:31:43.718Z,11.60
2023-04-19T13:34:11.028Z,12.95
2023-04-19T13:36:38.061Z,13.30
2023-04-19T13:39:07.554Z,11.35
2023-04-19T13:41:35.798Z,10.57
2023-04-19T13:44:02.855Z,11.02
2023-04-19T13:46:29.988Z,10.43
2023-04-19T13:48:56.969Z,11.02
2023-04-19T13:51:23.951Z,15.25
2023-04-19T13:53:50.936Z,11.85
2023-04-19T13:56:18.000Z,9.50
2023-04-19T13:58:45.007Z,9.77
2023-04-19T14:01:12.116Z,13.45
2023-04-19T14:03:39.492Z,11.23
2023-04-19T14:06:06.855Z,16.75
2023-04-19T14:08:34.930Z,13.10
2023-04-19T14:11:01.936Z,11.57
2023-04-19T14:13:29.013Z,12.80
2023-04-19T14:15:55.977Z,12.32
2023-04-19T14:18:22.961Z,10.98
2023-04-19T14:20:49.947Z,10.07
2023-04-19T14:23:17.026Z,14.25
2023-04-19T14:25:43.966Z,12.02
2023-04-19T14:28:12.916Z,13.40
2023-04-19T14:30:40.519Z,9.57
2023-04-19T14:33:07.578Z,10.25
2023-04-19T14:35:34.645Z,10.55
2023-04-19T14:38:01.716Z,10.90
2023-04-19T14:40:28.785Z,8.98
2023-04-19T14:42:55.846Z,14.82
2023-04-19T14:45:23.022Z,8.55
2023-04-19T14:47:50.185Z,8.25
2023-04-19T14:50:17.328Z,10.70
2023-04-19T14:52:44.370Z,11.38
2023-04-19T14:55:11.902Z,8.98
2023-04-19T14:57:38.985Z,7.93
2023-04-19T15:00:06.762Z,6.55
2023-04-19T15:02:33.945Z,8.15
2023-04-19T15:05:01.297Z,6.72
2023-04-19T15:07:28.537Z,5.57
2023-04-19T15:09:55.574Z,5.63
2023-04-19T15:12:22.686Z,5.70
2023-04-19T15:14:49.732Z,4.53
2023-04-19T15:17:16.915Z,2.90
2023-04-19T15:19:46.959Z,3.25
2023-04-19T15:22:13.958Z,2.38
2023-04-19T15:24:40.943Z,4.55
2023-04-19T15:27:08.014Z,4.28
2023-04-19T15:29:35.729Z,2.17
2023-04-19T15:32:03.037Z,3.72
2023-04-19T15:34:29.999Z,3.95
2023-04-19T15:36:57.573Z,5.13
2023-04-19T15:39:25.450Z,2.85
2023-04-19T15:41:52.515Z,1.70
2023-04-19T15:44:19.775Z,2.10
2023-04-19T15:46:46.819Z,1.67
2023-04-19T15:49:13.996Z,1.63
2023-04-19T15:51:41.436Z,2.50
2023-04-19T15:54:11.227Z,1.88
2023-04-19T15:59:05.310Z,2.42
2023-04-19T16:01:32.505Z,2.13
2023-04-19T16:03:59.547Z,3.17
2023-04-19T16:06:27.459Z,2.67
2023-04-19T16:08:54.392Z,2.75
2023-04-19T16:11:21.272Z,2.60
2023-04-19T16:13:48.603Z,2.67
2023-04-19T16:16:15.520Z,5.43
2023-04-19T16:18:42.428Z,2.70
2023-04-19T16:21:10.657Z,2.55
2023-04-19T16:23:37.537Z,5.97
2023-04-19T16:26:22.152Z,4.15
2023-04-19T16:28:49.337Z,4.38
2023-04-19T16:31:16.240Z,4.15
2023-04-19T16:33:43.203Z,3.60
2023-04-19T16:36:10.147Z,3.30
2023-04-19T16:38:37.135Z,3.35
2023-04-19T16:41:05.901Z,2.28
2023-04-19T16:43:33.368Z,3.95
2023-04-19T16:46:00.440Z,5.30
2023-04-19T16:48:27.549Z,4.65
2023-04-19T16:50:54.523Z,3.08
2023-04-19T16:53:21.491Z,2.45
2023-04-19T16:55:48.484Z,2.38
2023-04-19T16:58:15.567Z,3.85
2023-04-19T17:00:42.571Z,3.28
2023-04-19T17:03:09.808Z,3.20
2023-04-19T17:05:36.901Z,3.67
2023-04-19T17:08:03.989Z,3.83
2023-04-19T17:10:30.928Z,6.03
2023-04-19T17:12:58.013Z,5.25
2023-04-19T17:15:25.034Z,9.70
2023-04-19T17:17:52.066Z,5.32
2023-04-19T17:20:19.121Z,4.38
2023-04-19T17:22:46.312Z,4.60
2023-04-19T17:25:13.479Z,6.78
2023-04-19T17:27:40.472Z,6.35
2023-04-19T17:30:08.167Z,6.82
2023-04-19T17:32:35.593Z,3.95
2023-04-19T17:35:04.179Z,6.47
2023-04-19T17:37:31.424Z,6.10
2023-04-19T17:39:58.527Z,3.53
2023-04-19T17:42:26.098Z,4.65
2023-04-19T17:44:53.387Z,3.35
2023-04-19T17:47:20.634Z,2.85
2023-04-19T17:49:48.196Z,3.03
2023-04-19T17:52:15.254Z,4.43
2023-04-19T17:54:42.224Z,3.58
2023-04-19T17:57:09.478Z,3.28
2023-04-19T17:59:36.468Z,3.95
2023-04-19T18:02:03.651Z,4.97
2023-04-19T18:04:31.106Z,5.05
2023-04-19T18:06:58.179Z,2.67
2023-04-19T18:09:25.134Z,4.10
2023-04-19T18:11:52.098Z,4.57
2023-04-19T18:14:19.102Z,3.47
2023-04-19T18:16:46.217Z,4.85
2023-04-19T18:19:13.248Z,3.97
2023-04-19T18:21:40.313Z,4.97
2023-04-19T18:24:07.513Z,4.63
2023-04-19T18:26:41.800Z,4.78
2023-04-19T18:29:09.575Z,5.57
2023-04-19T18:31:36.571Z,3.13
2023-04-19T18:34:03.923Z,35.72
2023-04-19T18:36:32.215Z,37.78
2023-04-19T18:38:59.301Z,23.40
2023-04-19T18:41:26.349Z,12.30
2023-04-19T18:44:19.590Z,6.13
2023-04-19T18:46:41.654Z,6.78
2023-04-19T18:49:08.713Z,8.48
2023-04-19T18:51:36.452Z,5.85
2023-04-19T18:54:03.774Z,4.38
2023-04-19T18:57:07.179Z,4.57
2023-04-19T18:59:18.016Z,3.67
2023-04-19T19:01:45.807Z,6.63
2023-04-19T19:04:33.978Z,4.50
2023-04-19T19:07:27.686Z,3.50
2023-04-19T19:10:09.863Z,3.38
2023-04-19T19:12:48.318Z,3.80
2023-04-19T19:15:17.469Z,6.10
2023-04-19T19:17:49.488Z,3.42
2023-04-19T19:20:18.225Z,5.85
2023-04-19T19:22:45.662Z,5.50
2023-04-19T19:25:13.185Z,4.90
2023-04-19T19:27:40.278Z,3.45
2023-04-19T19:30:08.874Z,5.70
2023-04-19T19:32:35.977Z,4.15
2023-04-19T19:35:08.255Z,6.30
2023-04-19T19:37:44.414Z,8.77
2023-04-19T19:40:13.641Z,4.45
2023-04-19T19:42:41.959Z,6.63
2023-04-19T19:45:10.011Z,5.63
2023-04-19T19:47:45.366Z,6.13
2023-04-19T19:50:57.675Z,5.22
2023-04-19T19:53:01.696Z,4.15
2023-04-19T19:55:29.154Z,4.63
2023-04-19T20:02:56.955Z,5.30
2023-04-19T20:05:24.577Z,5.13
2023-04-19T20:10:21.776Z,5.53
2023-04-19T20:12:48.721Z,6.35
2023-04-19T20:15:15.781Z,4.88
2023-04-19T20:17:43.895Z,6.00
2023-04-19T20:20:11.630Z,7.00
2023-04-19T20:22:38.769Z,4.68
2023-04-19T20:25:06.644Z,4.53
2023-04-19T20:27:34.090Z,4.60
2023-04-19T20:30:01.126Z,5.32
2023-04-19T20:32:28.213Z,5.07
2023-04-19T20:34:55.223Z,5.45
2023-04-19T20:37:22.618Z,7.97
2023-04-19T20:39:49.672Z,8.27
2023-04-19T20:42:16.866Z,5.57
2023-04-19T20:44:44.609Z,5.63
2023-04-19T20:47:13.336Z,6.47
2023-04-19T20:49:40.993Z,10.77
2023-04-19T20:52:08.044Z,6.05
2023-04-19T20:54:36.694Z,6.47
2023-04-19T20:57:05.019Z,6.87
2023-04-19T20:59:32.609Z,6.63
2023-04-19T21:02:00.484Z,4.97
2023-04-19T21:04:28.507Z,5.15
2023-04-19T21:06:56.044Z,4.88
2023-04-19T21:09:23.514Z,6.68
2023-04-19T21:11:50.949Z,7.45
2023-04-19T21:14:18.412Z,5.88
2023-04-19T21:16:45.351Z,7.72
2023-04-19T21:19:12.282Z,8.38
2023-04-19T21:21:39.253Z,8.27
2023-04-19T21:24:07.391Z,6.22
2023-04-19T21:26:34.401Z,7.13
2023-04-19T21:29:01.343Z,8.27
2023-04-19T21:31:28.309Z,9.98
2023-04-19T21:33:55.317Z,11.52
2023-04-19T21:36:22.256Z,8.57
2023-04-19T21:38:53.295Z,11.25
2023-04-19T21:41:20.630Z,6.85
2023-04-19T21:43:47.606Z,12.15
2023-04-19T21:46:14.628Z,7.10
2023-04-19T21:48:41.597Z,7.35
2023-04-19T21:51:08.534Z,8.30
2023-04-19T21:53:36.417Z,8.52
2023-04-19T21:56:03.451Z,8.02
2023-04-19T21:58:30.408Z,8.18
2023-04-19T22:00:57.509Z,9.15
2023-04-19T22:03:24.828Z,6.50
2023-04-19T22:05:51.859Z,7.50
2023-04-19T22:08:18.831Z,7.93
2023-04-19T22:10:46.420Z,7.63
2023-04-19T22:13:14.036Z,7.10
2023-04-19T22:15:41.082Z,7.70
2023-04-19T22:18:08.773Z,4.53
2023-04-19T22:20:35.872Z,6.60
2023-04-19T22:23:02.826Z,7.60
2023-04-19T22:25:30.124Z,6.20
2023-04-19T22:27:57.201Z,6.40
2023-04-19T22:30:24.213Z,8.43
2023-04-19T22:32:51.315Z,7.10
2023-04-19T22:35:19.590Z,7.35
2023-04-19T22:37:48.369Z,9.07
2023-04-19T22:40:15.350Z,6.28
2023-04-19T22:42:42.258Z,11.05
2023-04-19T22:45:10.050Z,8.15
2023-04-19T22:47:37.383Z,7.10
2023-04-19T22:50:05.261Z,6.47
2023-04-19T22:52:32.322Z,7.25
2023-04-19T22:54:59.321Z,8.55
2023-04-19T22:57:26.290Z,8.32
2023-04-19T22:59:53.280Z,8.13
2023-04-19T23:02:20.468Z,6.72
2023-04-19T23:04:49.190Z,7.72
2023-04-19T23:07:16.243Z,8.07
2023-04-19T23:09:43.221Z,7.10
2023-04-19T23:12:10.269Z,9.90
2023-04-19T23:14:38.993Z,8.55
2023-04-19T23:17:06.145Z,6.87
2023-04-19T23:19:33.212Z,7.22
2023-04-19T23:22:00.177Z,5.82
2023-04-19T23:24:27.163Z,6.65
2023-04-19T23:26:54.116Z,7.20
2023-04-19T23:29:21.167Z,8.93
2023-04-19T23:31:48.272Z,8.00
2023-04-19T23:34:15.398Z,7.72
2023-04-19T23:36:42.341Z,8.52
2023-04-19T23:39:09.343Z,8.18
2023-04-19T23:41:36.413Z,6.15
2023-04-19T23:44:03.379Z,7.13
2023-04-19T23:46:30.411Z,10.63
2023-04-19T23:48:57.420Z,9.68
2023-04-19T23:51:24.427Z,9.63
2023-04-19T23:53:51.428Z,9.13
2023-04-19T23:56:18.398Z,7.78
2023-04-19T23:58:45.552Z,8.75
